Filer City, Michigan
Current Conditions -  °F | °C
As of 6:55 AM on Wednesday 28 Jan 2015 (Local Time) from KMBL Reporting Station
Clear Clear  
Wind Chill: -3°   Ceiling: Unl
Heat Index:   Visibility: 10mi
Dew Point:   Wind: 6mph
Humidity: 79%   Direction: 90°E
Pressure: 30.28"   Gusts: NA
Location:  44.22°N, 86.29°W
Report Text: KMBL 281155Z AUTO 09005KT 10SM CLR M14/M17 A3028 RMK AO1 11120 21140 54000
Loading
Personal Weather Stations






























Interactive Weather Map New forecast layout! Learn more

10-Day Weather Forecast

Advertisements
Track Severe Weather on mobile